| Date | Time | Temp. (oF) | Dew Point (oF) | Rel. Hum. (%) | Press. (in.) | Wind Dir. (deg.) | Wind Speed (mph) | Hourly Rainfall (i n.) |
|
|---|---|---|---|---|---|---|---|---|---|
| 1 | 10/24 | 24:00 | 47 | 36 | 66 | 29.94 | 310 | 2 | 0.00 |
| 2 | 10/23 | 23:00 | 46 | 34 | 64 | 29.92 | 300 | 0 | 0.00 |
| 3 | 10/23 | 22:00 | 47 | 33 | 60 | 29.92 | 290 | 6 | 0.00 |
| 4 | 10/23 | 21:00 | 47 | 34 | 61 | 29.91 | 310 | 2 | 0.00 |
| 5 | 10/23 | 20:00 | 48 | 34 | 60 | 29.90 | 310 | 1 | 0.00 |
| 6 | 10/23 | 19:00 | 50 | 33 | 53 | 29.89 | 310 | 6 | 0.00 |
| 7 | 10/23 | 18:00 | 51 | 33 | 51 | 29.88 | 270 | 7 | 0.00 |
| 8 | 10/23 | 17:00 | 52 | 33 | 50 | 29.87 | 310 | 9 | 0.00 |
| 9 | 10/23 | 16:00 | 54 | 34 | 48 | 29.85 | 260 | 9 | 0.00 |
| 10 | 10/23 | 15:00 | 54 | 35 | 49 | 29.83 | 310 | 2 | 0.00 |
| 11 | 10/23 | 14:00 | 54 | 35 | 49 | 29.82 | 230 | 9 | 0.00 |
| 12 | 10/23 | 13:00 | 54 | 37 | 53 | 29.82 | 290 | 10 | 0.00 |
| 13 | 10/23 | 12:00 | 53 | 39 | 59 | 29.81 | 230 | 9 | 0.00 |
| 14 | 10/23 | 11:00 | 51 | 37 | 61 | 29.81 | 260 | 10 | 0.00 |
| 15 | 10/23 | 10:00 | 51 | 41 | 70 | 29.81 | 290 | 11 | 0.00 |
| 16 | 10/23 | 09:00 | 48 | 40 | 76 | 29.80 | 270 | 10 | 0.00 |
| 17 | 10/23 | 08:00 | 47 | 42 | 83 | 29.77 | 300 | 0 | 0.00 |
| 18 | 10/23 | 07:00 | 47 | 43 | 86 | 29.76 | 300 | 0 | 0.00 |
| 19 | 10/23 | 06:00 | 46 | 42 | 86 | 29.75 | 280 | 0 | 0.00 |
| 20 | 10/23 | 05:00 | 46 | 42 | 87 | 29.75 | 270 | 2 | 0.00 |
| 21 | 10/23 | 04:00 | 47 | 43 | 87 | 29.75 | 270 | 0 | 0.00 |
| 22 | 10/23 | 03:00 | 49 | 46 | 92 | 29.76 | 300 | 2 | 0.00 |
| 23 | 10/23 | 02:00 | 50 | 47 | 92 | 29.77 | 30 | 0 | 0.00 |
| 24 | 10/23 | 01:00 | 51 | 48 | 92 | 29.77 | 30 | 1 | 0.01 |